Time;durP1;ratioP1;P1;durP2;ratioP2;P2;SDS_P1;SDS_P2;PMS_P1;PMS_P2;Temp;Humidity;BMP_temperature;BMP_pressure;BME280_temperature;BME280_humidity;BME280_pressure;Samples;Min_cycle;Max_cycle;Signal;HPM_P1;HPM_P2
2022/10/07 00:02:02;;;;;;;13.48;3.45;;;9.50;99.90;;;;;;5111022;28;20070;-62
2022/10/07 00:04:27;;;;;;;10.77;2.92;;;9.50;99.90;;;;;;5092809;28;20040;-62
2022/10/07 00:06:53;;;;;;;6.88;2.45;;;9.50;99.90;;;;;;5110923;28;20047;-62
2022/10/07 00:09:19;;;;;;;12.18;3.28;;;9.50;99.90;;;;;;5109493;28;20050;-62
2022/10/07 00:11:45;;;;;;;17.48;3.53;;;9.50;99.90;;;;;;5092605;28;20046;-62
2022/10/07 00:14:11;;;;;;;11.77;3.40;;;9.50;99.90;;;;;;5108545;28;20031;-62
2022/10/07 00:16:39;;;;;;;15.27;2.97;;;9.50;99.90;;;;;;5110896;28;20031;-62
2022/10/07 00:19:09;;;;;;;14.77;2.88;;;9.50;99.90;;;;;;5110702;28;20300;-63
2022/10/07 00:21:36;;;;;;;14.35;3.20;;;9.50;99.90;;;;;;5109708;28;20114;-62
2022/10/07 00:24:03;;;;;;;11.90;2.85;;;9.50;99.90;;;;;;5110389;28;20043;-62
2022/10/07 00:26:31;;;;;;;10.40;3.28;;;9.50;99.90;;;;;;5110677;28;20083;-62
2022/10/07 00:28:57;;;;;;;11.77;3.00;;;9.50;99.90;;;;;;5110689;28;20479;-63
2022/10/07 00:31:25;;;;;;;11.32;2.80;;;9.40;99.90;;;;;;5111945;28;20046;-63
2022/10/07 00:33:52;;;;;;;9.52;3.50;;;9.40;99.90;;;;;;5110707;28;20100;-62
2022/10/07 00:36:22;;;;;;;10.15;3.08;;;9.40;99.90;;;;;;5110610;28;20475;-62
2022/10/07 00:38:56;;;;;;;9.50;2.67;;;9.40;99.90;;;;;;5112112;28;20048;-62
2022/10/07 00:41:26;;;;;;;13.10;3.03;;;9.40;99.90;;;;;;5110777;28;20044;-62
2022/10/07 00:43:52;;;;;;;10.07;2.80;;;9.40;99.90;;;;;;5109003;28;20035;-62
2022/10/07 00:46:32;;;;;;;10.10;3.13;;;9.30;99.90;;;;;;5109134;28;20039;-62
2022/10/07 00:49:02;;;;;;;11.40;2.50;;;9.30;99.90;;;;;;5110586;28;20721;-63
2022/10/07 00:51:30;;;;;;;12.03;3.20;;;9.30;99.90;;;;;;5110520;28;20047;-62
2022/10/07 00:53:56;;;;;;;10.32;2.85;;;9.20;99.90;;;;;;5110514;28;20078;-62
2022/10/07 00:56:25;;;;;;;9.45;3.22;;;9.20;99.90;;;;;;5110426;28;20172;-62
2022/10/07 00:58:51;;;;;;;9.27;3.00;;;9.10;99.90;;;;;;5111586;28;20502;-62
2022/10/07 01:01:18;;;;;;;8.27;2.95;;;9.10;99.90;;;;;;5110624;28;20130;-62
2022/10/07 01:03:46;;;;;;;11.55;3.53;;;9.10;99.90;;;;;;5093394;28;20130;-62
2022/10/07 01:06:12;;;;;;;11.15;3.75;;;9.10;99.90;;;;;;5111771;28;20043;-62
2022/10/07 01:08:39;;;;;;;10.07;3.83;;;9.10;99.90;;;;;;5111581;28;20036;-63
2022/10/07 01:11:14;;;;;;;8.48;3.92;;;9.10;99.90;;;;;;5111661;28;20032;-62
2022/10/07 01:14:01;;;;;;;8.20;3.50;;;9.10;99.90;;;;;;5110469;28;20043;-63
2022/10/07 01:16:38;;;;;;;11.55;3.45;;;9.10;99.90;;;;;;5111560;28;20514;-63
2022/10/07 01:19:43;;;;;;;12.63;4.30;;;9.20;99.90;;;;;;5110416;28;20147;-62
2022/10/07 01:22:33;;;;;;;11.20;3.92;;;9.20;99.90;;;;;;5111740;28;20058;-63
2022/10/07 01:24:59;;;;;;;;;;;9.20;99.90;;;;;;5111867;28;20046;-63
2022/10/07 01:27:26;;;;;;;10.43;4.60;;;9.20;99.90;;;;;;5111287;28;19924;-63
2022/10/07 01:29:57;;;;;;;14.35;3.85;;;9.10;99.90;;;;;;5110049;28;20044;-63
2022/10/07 01:32:31;;;;;;;8.50;4.15;;;9.10;99.90;;;;;;5110157;28;20031;-63
2022/10/07 01:34:58;;;;;;;15.02;4.25;;;9.10;99.90;;;;;;5111470;28;20028;-63
2022/10/07 01:37:29;;;;;;;11.13;3.80;;;9.10;99.90;;;;;;5111386;28;20047;-63
2022/10/07 01:40:01;;;;;;;7.80;3.65;;;9.10;99.90;;;;;;5109886;28;20046;-63
2022/10/07 01:42:28;;;;;;;10.02;3.92;;;9.10;99.90;;;;;;5110797;28;20039;-63
2022/10/07 01:44:57;;;;;;;12.35;3.85;;;9.10;99.90;;;;;;5129443;28;20383;-63
2022/10/07 01:47:27;;;;;;;9.43;3.97;;;9.10;99.90;;;;;;5130566;28;20095;-62
2022/10/07 01:49:53;;;;;;;8.30;3.80;;;9.00;99.90;;;;;;5131779;27;20073;-63
2022/10/07 01:52:39;;;;;;;12.77;4.20;;;9.00;99.90;;;;;;5130306;28;20082;-62
2022/10/07 01:55:18;;;;;;;12.00;3.75;;;9.00;99.90;;;;;;5131408;27;20344;-63
2022/10/07 01:58:24;;;;;;;9.90;3.97;;;9.10;99.90;;;;;;5131590;27;20082;-63
2022/10/07 02:01:07;;;;;;;16.27;4.95;;;9.10;99.90;;;;;;5078756;27;20134;-62
2022/10/07 02:04:04;;;;;;;15.27;3.90;;;9.10;99.90;;;;;;5134228;27;20163;-62
2022/10/07 02:06:42;;;;;;;17.13;4.93;;;9.10;99.90;;;;;;5134126;27;20093;-62
2022/10/07 02:09:38;;;;;;;14.13;4.00;;;9.10;99.90;;;;;;5135188;27;20080;-62
2022/10/07 02:12:14;;;;;;;12.15;4.53;;;9.10;99.90;;;;;;5134704;27;20043;-63
2022/10/07 02:14:47;;;;;;;12.57;4.35;;;9.10;99.90;;;;;;5133120;27;20036;-63
2022/10/07 02:17:19;;;;;;;14.18;4.43;;;9.10;99.90;;;;;;5135187;27;20064;-63
2022/10/07 02:19:52;;;;;;;13.77;4.68;;;9.10;99.90;;;;;;5133648;27;20035;-63
2022/10/07 02:22:21;;;;;;;16.90;4.20;;;9.10;99.90;;;;;;5116681;27;20042;-63
2022/10/07 02:24:53;;;;;;;14.75;5.15;;;9.10;99.90;;;;;;5133852;27;20043;-63
2022/10/07 02:27:24;;;;;;;13.95;4.03;;;9.10;99.90;;;;;;5116611;27;20527;-63
2022/10/07 02:29:53;;;;;;;11.15;4.20;;;9.10;99.90;;;;;;5114258;28;20126;-63
2022/10/07 02:32:24;;;;;;;19.58;4.72;;;9.10;99.90;;;;;;5112907;28;20039;-63
2022/10/07 02:34:56;;;;;;;10.35;4.07;;;9.10;99.90;;;;;;5114242;28;20100;-63
2022/10/07 02:37:26;;;;;;;13.65;5.00;;;9.10;99.90;;;;;;5113247;28;20119;-63
2022/10/07 02:39:55;;;;;;;15.50;5.40;;;9.00;99.90;;;;;;5112857;28;20047;-63
2022/10/07 02:42:34;;;;;;;15.70;4.65;;;9.00;99.90;;;;;;5114118;28;20043;-63
2022/10/07 02:45:22;;;;;;;13.48;4.03;;;9.00;99.90;;;;;;5111949;28;20063;-63
2022/10/07 02:47:58;;;;;;;10.05;4.13;;;9.00;99.90;;;;;;5095589;28;20040;-63
2022/10/07 02:50:30;;;;;;;11.30;4.10;;;9.00;99.90;;;;;;5095677;28;20503;-62
2022/10/07 02:52:57;;;;;;;19.08;4.57;;;9.00;99.90;;;;;;5112631;28;20079;-62
2022/10/07 02:55:26;;;;;;;12.57;4.07;;;9.00;99.90;;;;;;5113977;28;20062;-63
2022/10/07 02:57:57;;;;;;;16.05;4.68;;;9.10;99.90;;;;;;5112441;28;20104;-63
2022/10/07 03:00:23;;;;;;;13.80;4.38;;;9.00;99.90;;;;;;5113730;28;20047;-63
2022/10/07 03:02:51;;;;;;;17.92;5.50;;;9.00;99.90;;;;;;5113680;28;20050;-63
2022/10/07 03:05:19;;;;;;;14.95;4.50;;;9.10;99.90;;;;;;5112463;28;20044;-63
2022/10/07 03:07:51;;;;;;;13.40;4.40;;;9.10;99.90;;;;;;5112139;28;20048;-63
2022/10/07 03:10:17;;;;;;;18.13;3.83;;;9.10;99.90;;;;;;5111727;28;20031;-63
2022/10/07 03:12:43;;;;;;;17.17;4.82;;;9.10;99.90;;;;;;5113739;27;20093;-63
2022/10/07 03:15:10;;;;;;;15.77;4.22;;;9.10;99.90;;;;;;5109983;28;20038;-63
2022/10/07 03:17:38;;;;;;;16.73;4.97;;;9.10;99.90;;;;;;5095112;28;20044;-63
2022/10/07 03:20:05;;;;;;;15.02;4.47;;;9.10;99.90;;;;;;5112302;28;20035;-63
2022/10/07 03:22:30;;;;;;;11.85;4.68;;;9.20;99.90;;;;;;5113292;28;20398;-63
2022/10/07 03:24:57;;;;;;;17.77;5.05;;;9.10;99.90;;;;;;5111854;28;20126;-63
2022/10/07 03:27:22;;;;;;;17.60;4.85;;;9.10;99.90;;;;;;5126432;27;20054;-63
2022/10/07 03:29:49;;;;;;;11.90;4.50;;;9.10;99.90;;;;;;5132366;27;20121;-63
2022/10/07 03:32:14;;;;;;;18.35;5.05;;;9.10;99.90;;;;;;5132615;27;20047;-63
2022/10/07 03:34:40;;;;;;;15.77;4.22;;;9.10;99.90;;;;;;5132578;27;20031;-63
2022/10/07 03:37:06;;;;;;;17.75;5.63;;;9.10;99.90;;;;;;5133575;27;20031;-63
2022/10/07 03:39:32;;;;;;;16.70;4.72;;;9.20;99.90;;;;;;5133413;27;20118;-63
2022/10/07 03:41:58;;;;;;;13.27;4.57;;;9.10;99.90;;;;;;5132244;27;20039;-63
2022/10/07 03:44:24;;;;;;;16.20;4.40;;;9.20;99.90;;;;;;5130715;27;20050;-63
2022/10/07 03:46:50;;;;;;;14.52;5.28;;;9.20;99.90;;;;;;5132104;27;20131;-63
2022/10/07 03:49:18;;;;;;;13.57;4.55;;;9.20;99.90;;;;;;5130542;27;20188;-63
2022/10/07 03:51:44;;;;;;;15.85;5.28;;;9.20;99.90;;;;;;5130779;27;20043;-64
2022/10/07 03:54:10;;;;;;;21.17;4.97;;;9.20;99.90;;;;;;5131666;27;20518;-63
2022/10/07 03:56:36;;;;;;;13.35;4.35;;;9.20;99.90;;;;;;5130823;27;20043;-63
2022/10/07 03:59:02;;;;;;;20.15;5.28;;;9.20;99.90;;;;;;5131870;27;20565;-64
2022/10/07 04:01:30;;;;;;;15.77;4.50;;;9.20;99.90;;;;;;5131798;27;20028;-63
2022/10/07 04:03:57;;;;;;;14.73;4.65;;;9.20;99.90;;;;;;5130726;27;20111;-63
2022/10/07 04:06:23;;;;;;;19.10;5.30;;;9.20;99.90;;;;;;5131646;27;20460;-63
2022/10/07 04:08:54;;;;;;;17.83;6.13;;;9.20;99.90;;;;;;5130198;27;20077;-62
2022/10/07 04:11:20;;;;;;;;;;;9.20;99.90;;;;;;5130642;27;20043;-62
2022/10/07 04:13:46;;;;;;;18.55;5.05;;;9.20;99.90;;;;;;5113019;27;19915;-63
2022/10/07 04:16:13;;;;;;;15.90;5.47;;;9.20;99.90;;;;;;5129182;27;20050;-63
2022/10/07 04:18:42;;;;;;;14.70;5.40;;;9.20;99.90;;;;;;5131295;27;20035;-63
2022/10/07 04:21:08;;;;;;;11.48;4.70;;;9.20;99.90;;;;;;5129305;27;20050;-63
2022/10/07 04:23:34;;;;;;;14.77;5.28;;;9.20;99.90;;;;;;5129969;27;20499;-63
2022/10/07 04:26:00;;;;;;;19.40;4.90;;;9.30;99.90;;;;;;5129758;27;20525;-63
2022/10/07 04:28:26;;;;;;;16.15;4.65;;;9.30;99.90;;;;;;5129923;27;20372;-62
2022/10/07 04:30:53;;;;;;;18.08;5.03;;;9.30;99.90;;;;;;5129771;27;20057;-63
2022/10/07 04:33:20;;;;;;;15.52;5.13;;;9.30;99.90;;;;;;5129846;27;20035;-62
2022/10/07 04:35:49;;;;;;;15.65;5.10;;;9.30;99.90;;;;;;5112841;27;20089;-65
2022/10/07 04:38:16;;;;;;;17.05;5.00;;;9.30;99.90;;;;;;5130092;27;20398;-63
2022/10/07 04:40:45;;;;;;;13.95;5.20;;;9.30;99.90;;;;;;5129717;27;20070;-63
2022/10/07 04:43:22;;;;;;;18.30;5.60;;;9.30;99.90;;;;;;5129847;27;20100;-63
2022/10/07 04:45:51;;;;;;;18.88;5.78;;;9.40;99.90;;;;;;5127198;27;20084;-63
2022/10/07 04:48:19;;;;;;;18.02;5.28;;;9.30;99.90;;;;;;5129716;27;20043;-63
2022/10/07 04:50:45;;;;;;;12.45;4.88;;;9.40;99.90;;;;;;5129885;27;20096;-62
2022/10/07 04:53:15;;;;;;;17.45;5.55;;;9.40;99.90;;;;;;5131035;27;20040;-63
2022/10/07 04:55:45;;;;;;;14.77;5.28;;;9.40;99.90;;;;;;5129841;27;20043;-63
2022/10/07 04:58:11;;;;;;;22.67;6.28;;;9.40;99.90;;;;;;5129517;27;20074;-62
2022/10/07 05:00:46;;;;;;;15.60;5.45;;;9.40;99.90;;;;;;5129509;28;20050;-63
2022/10/07 05:03:13;;;;;;;22.88;5.57;;;9.40;99.90;;;;;;5129471;28;20142;-61
2022/10/07 05:05:41;;;;;;;11.95;4.82;;;9.40;99.90;;;;;;5131073;27;20118;-62
2022/10/07 05:08:07;;;;;;;21.83;4.88;;;9.40;99.90;;;;;;5130798;27;20122;-63
2022/10/07 05:10:38;;;;;;;17.55;5.78;;;9.50;99.90;;;;;;5130791;27;20035;-62
2022/10/07 05:13:06;;;;;;;15.52;5.75;;;9.50;99.90;;;;;;5129339;28;20054;-63
2022/10/07 05:15:32;;;;;;;17.55;5.70;;;9.50;99.90;;;;;;5126933;28;20491;-62
2022/10/07 05:17:58;;;;;;;23.17;6.40;;;9.50;99.90;;;;;;5129133;28;20110;-62
2022/10/07 05:20:25;;;;;;;18.85;6.13;;;9.50;99.90;;;;;;5130806;28;20120;-63
2022/10/07 05:22:51;;;;;;;11.73;5.55;;;9.50;99.90;;;;;;5112139;28;20047;-63
2022/10/07 05:25:18;;;;;;;21.42;5.63;;;9.50;99.90;;;;;;5130757;28;20045;-63
2022/10/07 05:27:44;;;;;;;21.05;5.63;;;9.50;99.90;;;;;;5129074;28;20090;-63
2022/10/07 05:30:11;;;;;;;19.63;6.10;;;9.50;99.90;;;;;;5129394;28;20525;-63
2022/10/07 05:32:36;;;;;;;19.67;6.30;;;9.50;99.90;;;;;;5130503;27;20046;-64
2022/10/07 05:35:02;;;;;;;19.73;5.82;;;9.50;99.90;;;;;;5133393;27;20035;-64
2022/10/07 05:37:28;;;;;;;16.98;6.05;;;9.60;99.90;;;;;;5116056;27;20035;-63
2022/10/07 05:39:54;;;;;;;13.05;5.95;;;9.60;99.90;;;;;;5133446;27;20092;-62
2022/10/07 05:42:20;;;;;;;17.02;5.45;;;9.60;99.90;;;;;;5133101;27;20419;-63
2022/10/07 05:44:46;;;;;;;15.60;5.63;;;9.60;99.90;;;;;;5131928;27;20038;-63
2022/10/07 05:47:12;;;;;;;20.52;5.80;;;9.60;99.90;;;;;;5134244;27;20487;-63
2022/10/07 05:49:37;;;;;;;17.05;6.00;;;9.60;99.90;;;;;;5115936;27;20039;-62
2022/10/07 05:52:05;;;;;;;19.63;7.30;;;9.60;99.90;;;;;;5134238;27;20118;-64
2022/10/07 05:54:32;;;;;;;16.25;6.32;;;9.60;99.90;;;;;;5134137;27;20035;-63
2022/10/07 05:56:58;;;;;;;21.25;5.97;;;9.60;99.90;;;;;;5115719;27;20039;-61
2022/10/07 05:59:23;;;;;;;15.02;6.00;;;9.60;99.90;;;;;;5133170;27;20122;-63
2022/10/07 06:01:49;;;;;;;20.77;6.93;;;9.60;99.90;;;;;;5132704;27;20073;-62
2022/10/07 06:04:15;;;;;;;18.33;6.80;;;9.70;99.90;;;;;;5132661;27;20130;-64
2022/10/07 06:06:41;;;;;;;17.70;6.60;;;9.70;99.90;;;;;;5132668;27;20049;-64
2022/10/07 06:14:36;;;;;;;17.60;6.05;;;9.70;99.90;;;;;;5131465;27;20047;-62
2022/10/07 06:17:03;;;;;;;21.90;6.63;;;9.70;99.90;;;;;;5132395;27;20039;-63
2022/10/07 06:19:29;;;;;;;14.80;6.00;;;9.80;99.90;;;;;;5133785;27;20172;-63
2022/10/07 06:21:55;;;;;;;19.08;6.00;;;9.80;99.90;;;;;;5115172;27;20126;-62
2022/10/07 06:24:20;;;;;;;18.70;6.63;;;9.90;99.90;;;;;;5132240;27;20054;-63
2022/10/07 06:26:47;;;;;;;20.77;5.88;;;9.90;99.90;;;;;;5103295;28;20044;-63
2022/10/07 06:29:13;;;;;;;17.98;5.40;;;10.00;99.90;;;;;;5128185;27;20507;-63
2022/10/07 06:31:39;;;;;;;19.98;7.22;;;10.00;99.90;;;;;;5133211;27;20035;-63
2022/10/07 06:34:05;;;;;;;19.77;5.82;;;10.00;99.90;;;;;;5132029;27;20047;-63
2022/10/07 06:36:31;;;;;;;17.83;5.80;;;10.10;99.90;;;;;;5131863;27;20039;-61
2022/10/07 06:38:56;;;;;;;20.17;6.93;;;10.10;99.90;;;;;;5133274;27;20131;-63
2022/10/07 06:41:23;;;;;;;11.27;4.82;;;10.20;99.90;;;;;;5132405;27;20046;-63
2022/10/07 06:44:02;;;;;;;18.23;5.43;;;10.20;99.90;;;;;;5132898;27;20049;-63
2022/10/07 06:46:31;;;;;;;13.48;5.07;;;10.30;99.90;;;;;;5133263;27;20039;-63
2022/10/07 06:48:58;;;;;;;17.02;4.43;;;10.30;99.90;;;;;;5129236;27;20050;-63
2022/10/07 06:51:24;;;;;;;17.70;6.93;;;10.30;99.90;;;;;;5131431;27;20035;-63
2022/10/07 06:53:53;;;;;;;12.77;5.28;;;10.40;99.90;;;;;;5131850;27;20108;-63
2022/10/07 06:56:19;;;;;;;19.85;5.38;;;10.40;99.90;;;;;;5131554;27;20043;-65
2022/10/07 06:58:48;;;;;;;18.67;5.47;;;10.50;99.90;;;;;;5114346;27;20031;-61
2022/10/07 07:01:15;;;;;;;15.10;4.95;;;10.50;99.90;;;;;;5133183;27;20485;-63
2022/10/07 07:03:41;;;;;;;16.35;5.65;;;10.60;99.90;;;;;;5132776;27;20126;-63
2022/10/07 07:06:09;;;;;;;13.15;4.85;;;10.60;99.90;;;;;;5131642;27;20513;-63
2022/10/07 07:08:36;;;;;;;18.17;4.85;;;10.70;99.90;;;;;;5131273;27;20519;-63
2022/10/07 07:11:04;;;;;;;12.80;4.10;;;10.70;99.90;;;;;;5131303;27;20039;-63
2022/10/07 07:13:33;;;;;;;19.58;5.35;;;10.70;99.90;;;;;;5114346;27;20134;-62
2022/10/07 07:15:59;;;;;;;15.00;4.38;;;10.80;99.90;;;;;;5130111;27;20035;-63
2022/10/07 07:18:25;;;;;;;11.57;5.20;;;10.90;99.90;;;;;;5114271;27;20364;-63
2022/10/07 07:20:51;;;;;;;17.20;5.18;;;10.90;99.90;;;;;;5114206;27;20035;-63
2022/10/07 07:23:17;;;;;;;9.98;4.53;;;11.00;99.90;;;;;;5131104;27;20047;-64
2022/10/07 07:25:44;;;;;;;16.58;4.88;;;11.10;99.90;;;;;;5113921;27;20307;-64
2022/10/07 07:28:12;;;;;;;14.50;4.60;;;11.30;99.90;;;;;;5131990;27;20464;-64
2022/10/07 07:30:38;;;;;;;16.08;4.15;;;11.40;99.90;;;;;;5132312;27;20039;-64
2022/10/07 07:33:05;;;;;;;13.43;4.25;;;11.40;99.90;;;;;;5132149;27;20452;-64
2022/10/07 07:35:35;;;;;;;17.45;4.10;;;11.50;99.90;;;;;;5131080;27;20039;-63
2022/10/07 07:38:01;;;;;;;9.35;3.70;;;11.50;99.90;;;;;;5131089;27;20078;-65
2022/10/07 07:40:27;;;;;;;14.68;4.35;;;11.50;99.90;;;;;;5113938;27;20131;-63
2022/10/07 07:42:56;;;;;;;13.88;3.72;;;11.50;99.90;;;;;;5131794;27;20051;-64
2022/10/07 07:45:23;;;;;;;12.75;3.60;;;11.50;99.90;;;;;;5111380;27;20371;-64
2022/10/07 07:47:49;;;;;;;11.95;3.90;;;11.60;99.90;;;;;;5130681;27;20076;-64
2022/10/07 07:50:17;;;;;;;16.05;4.68;;;11.70;99.90;;;;;;5131843;27;20118;-63
2022/10/07 07:52:43;;;;;;;9.32;2.90;;;11.80;99.90;;;;;;5130805;27;20031;-63
2022/10/07 07:55:09;;;;;;;13.32;4.72;;;11.90;99.90;;;;;;5125199;27;20125;-62
2022/10/07 07:57:35;;;;;;;13.90;4.10;;;12.10;99.90;;;;;;5130155;27;20050;-63
2022/10/07 08:00:04;;;;;;;11.32;4.00;;;12.20;99.90;;;;;;5113198;27;20051;-63
2022/10/07 08:02:30;;;;;;;9.82;3.38;;;12.40;99.90;;;;;;5113191;27;20468;-63
2022/10/07 08:04:56;;;;;;;14.70;3.42;;;12.80;99.90;;;;;;5130087;27;20074;-64
2022/10/07 08:07:22;;;;;;;10.18;3.22;;;13.30;99.90;;;;;;5131858;27;20051;-64
2022/10/07 08:09:48;;;;;;;14.25;4.85;;;13.70;99.90;;;;;;5129788;27;20548;-64
2022/10/07 08:12:14;;;;;;;9.13;3.65;;;13.90;99.90;;;;;;5130016;27;20050;-64
2022/10/07 08:14:42;;;;;;;15.82;3.28;;;13.90;99.90;;;;;;5128964;27;20049;-64
2022/10/07 08:17:08;;;;;;;13.98;3.85;;;13.80;99.90;;;;;;5131336;27;20039;-63
2022/10/07 08:19:33;;;;;;;19.33;5.65;;;13.60;99.90;;;;;;5130140;27;20035;-64
2022/10/07 08:22:00;;;;;;;14.43;4.70;;;13.50;99.90;;;;;;5129927;27;20502;-64
2022/10/07 08:24:26;;;;;;;15.55;3.92;;;13.40;99.90;;;;;;5130252;27;20136;-64
2022/10/07 08:26:52;;;;;;;11.93;3.60;;;13.40;99.90;;;;;;5131130;27;20047;-64
2022/10/07 08:29:19;;;;;;;14.85;3.88;;;13.40;99.90;;;;;;5129805;27;20391;-62
2022/10/07 08:31:46;;;;;;;20.95;4.75;;;13.50;99.90;;;;;;5129999;27;20522;-64
2022/10/07 08:34:12;;;;;;;19.70;4.10;;;13.50;99.90;;;;;;5131240;27;20126;-64
2022/10/07 08:36:39;;;;;;;11.23;3.30;;;13.90;99.90;;;;;;5131223;27;20114;-64
2022/10/07 08:39:06;;;;;;;11.55;3.58;;;14.60;99.90;;;;;;5129523;27;20035;-64
2022/10/07 08:41:40;;;;;;;17.40;3.40;;;15.40;99.90;;;;;;5112473;27;20039;-64
2022/10/07 08:44:38;;;;;;;11.85;3.30;;;16.20;99.90;;;;;;5127140;27;20096;-64
2022/10/07 08:47:29;;;;;;;13.45;3.85;;;16.90;99.90;;;;;;5112242;27;20053;-65
2022/10/07 08:50:12;;;;;;;11.07;3.35;;;17.60;99.90;;;;;;5130712;27;20550;-64
2022/10/07 08:52:38;;;;;;;13.57;3.95;;;18.10;99.90;;;;;;5112333;27;20039;-64
2022/10/07 08:55:31;;;;;;;16.88;5.60;;;18.30;99.90;;;;;;5112135;28;20060;-63
2022/10/07 08:58:18;;;;;;;18.60;6.50;;;18.00;99.90;;;;;;5123851;27;20134;-64
2022/10/07 09:00:53;;;;;;;20.42;6.43;;;18.00;99.90;;;;;;5130812;28;20383;-64
2022/10/07 09:03:40;;;;;;;14.57;5.22;;;18.00;99.90;;;;;;5131093;28;20039;-64
2022/10/07 09:06:18;;;;;;;17.92;5.82;;;18.20;99.90;;;;;;5147731;27;20118;-63
2022/10/07 09:08:51;;;;;;;21.40;5.95;;;18.00;99.90;;;;;;5132362;27;20038;-64
2022/10/07 09:11:24;;;;;;;13.70;4.95;;;17.70;99.90;;;;;;5135353;27;20047;-64
2022/10/07 09:13:58;;;;;;;14.60;4.93;;;17.70;99.90;;;;;;5124479;27;20127;-63
2022/10/07 09:16:30;;;;;;;18.55;6.28;;;17.70;99.90;;;;;;5133843;27;20073;-64
2022/10/07 09:19:02;;;;;;;16.95;4.90;;;17.60;99.90;;;;;;5128928;27;20040;-63
2022/10/07 09:21:49;;;;;;;13.68;5.00;;;17.30;99.90;;;;;;5114021;28;20479;-63
2022/10/07 09:24:27;;;;;;;16.23;4.85;;;17.00;99.90;;;;;;5134584;27;20047;-63
2022/10/07 09:26:57;;;;;;;12.10;4.68;;;16.60;99.90;;;;;;5134423;27;20469;-64
2022/10/07 09:29:28;;;;;;;14.55;4.97;;;16.40;99.90;;;;;;5134596;27;20434;-63
2022/10/07 09:31:55;;;;;;;15.25;4.05;;;16.20;99.90;;;;;;5120804;27;20039;-63
2022/10/07 09:34:26;;;;;;;16.73;5.10;;;16.00;99.90;;;;;;5115251;28;20044;-63
2022/10/07 09:37:21;;;;;;;12.52;3.72;;;15.90;99.90;;;;;;5123883;27;20084;-64
2022/10/07 09:39:53;;;;;;;17.45;4.35;;;15.80;99.90;;;;;;5134889;27;20035;-63
2022/10/07 09:42:29;;;;;;;15.57;4.32;;;15.60;99.90;;;;;;5122028;27;20044;-62
2022/10/07 09:45:02;;;;;;;14.93;3.38;;;15.60;99.90;;;;;;5131687;27;20050;-64
2022/10/07 09:47:36;;;;;;;14.07;2.92;;;15.60;99.90;;;;;;5134270;27;20058;-63
2022/10/07 09:50:03;;;;;;;15.80;3.45;;;15.50;99.90;;;;;;5135420;27;20045;-63
2022/10/07 09:52:30;;;;;;;12.63;2.92;;;15.40;99.90;;;;;;5114308;27;20122;-64
2022/10/07 09:55:17;;;;;;;17.42;3.58;;;15.40;99.90;;;;;;5115693;27;20422;-63
2022/10/07 09:57:59;;;;;;;11.88;3.15;;;15.30;99.90;;;;;;5133985;27;20077;-63
2022/10/07 10:00:26;;;;;;;15.63;2.95;;;15.30;99.90;;;;;;5134137;27;20372;-63
2022/10/07 10:02:54;;;;;;;11.25;2.72;;;15.30;99.90;;;;;;5133804;27;20046;-64
2022/10/07 10:05:32;;;;;;;10.45;2.67;;;15.20;99.90;;;;;;5130295;27;20031;-64
2022/10/07 10:08:03;;;;;;;16.83;3.90;;;15.30;99.90;;;;;;5108754;27;20092;-63
2022/10/07 10:10:32;;;;;;;16.35;4.35;;;15.20;99.90;;;;;;5113341;28;20039;-64
2022/10/07 10:13:00;;;;;;;15.40;3.45;;;15.30;99.90;;;;;;5119869;27;20036;-63
2022/10/07 10:15:34;;;;;;;13.52;3.97;;;15.50;99.90;;;;;;5110787;28;20097;-63
2022/10/07 10:18:22;;;;;;;9.35;2.47;;;16.40;99.90;;;;;;5116278;27;20554;-64
2022/10/07 10:20:48;;;;;;;12.02;3.40;;;17.60;99.90;;;;;;5133143;27;20034;-63
2022/10/07 10:23:49;;;;;;;14.98;3.55;;;18.70;99.90;;;;;;5115948;27;20038;-64
2022/10/07 10:26:29;;;;;;;17.08;3.40;;;19.30;99.90;;;;;;5116801;27;20133;-63
2022/10/07 10:29:23;;;;;;;10.90;3.00;;;19.30;99.90;;;;;;5133380;27;20050;-64
2022/10/07 10:32:00;;;;;;;8.77;2.45;;;18.80;99.90;;;;;;5120123;27;20096;-64
2022/10/07 10:34:26;;;;;;;10.77;2.80;;;18.40;99.90;;;;;;5132264;27;20051;-64
2022/10/07 10:37:07;;;;;;;11.93;2.60;;;18.10;99.90;;;;;;5116026;27;20038;-62
2022/10/07 10:39:39;;;;;;;14.60;2.95;;;17.60;99.90;;;;;;5108237;28;20046;-63
2022/10/07 10:42:10;;;;;;;10.40;3.22;;;17.30;99.90;;;;;;5113940;28;20058;-65
2022/10/07 10:45:13;;;;;;;10.68;2.63;;;17.60;99.90;;;;;;5120927;27;20032;-65
2022/10/07 10:48:18;;;;;;;11.25;2.92;;;18.50;99.90;;;;;;5114291;27;20114;-64
2022/10/07 10:51:06;;;;;;;9.95;2.95;;;19.40;99.90;;;;;;5123113;27;20042;-65
2022/10/07 10:53:37;;;;;;;12.90;2.55;;;20.00;99.90;;;;;;5122800;27;20074;-66
2022/10/07 10:56:09;;;;;;;16.73;3.47;;;20.30;99.90;;;;;;5117873;27;20114;-64
2022/10/07 10:58:56;;;;;;;9.68;2.72;;;20.40;99.90;;;;;;5095142;28;20073;-65
2022/10/07 11:01:41;;;;;;;13.30;2.60;;;20.50;99.90;;;;;;5126427;27;20402;-64
2022/10/07 11:04:32;;;;;;;12.57;3.67;;;20.70;99.90;;;;;;5132128;27;20138;-65
2022/10/07 11:07:23;;;;;;;14.15;2.80;;;20.90;99.90;;;;;;5115280;27;20400;-65
2022/10/07 11:10:00;;;;;;;15.57;3.40;;;20.90;99.90;;;;;;5122526;27;20684;-63
2022/10/07 11:12:36;;;;;;;13.43;2.90;;;20.70;99.90;;;;;;5114207;27;20118;-64
2022/10/07 11:15:25;;;;;;;13.40;3.28;;;20.40;99.90;;;;;;5119861;27;20046;-63
2022/10/07 11:17:53;;;;;;;14.30;3.50;;;20.30;99.90;;;;;;5116427;27;20055;-63
2022/10/07 11:20:32;;;;;;;8.63;2.40;;;20.70;99.90;;;;;;5132372;27;20118;-63
2022/10/07 11:23:27;;;;;;;11.52;2.50;;;20.80;99.90;;;;;;5119435;27;20057;-64
2022/10/07 11:26:09;;;;;;;13.77;2.78;;;20.60;99.90;;;;;;5109015;27;20108;-64
2022/10/07 11:28:38;;;;;;;17.40;3.42;;;20.10;99.90;;;;;;5131681;27;20048;-63
2022/10/07 11:31:34;;;;;;;11.63;3.38;;;19.50;99.90;;;;;;5119017;27;20046;-62
2022/10/07 11:34:15;;;;;;;12.68;2.63;;;19.00;99.90;;;;;;5132675;27;20156;-63
2022/10/07 11:37:05;;;;;;;10.88;2.17;;;18.60;99.90;;;;;;5132554;27;20031;-64
2022/10/07 11:39:35;;;;;;;13.90;3.10;;;18.20;99.90;;;;;;5130567;27;20070;-63
2022/10/07 11:42:24;;;;;;;13.57;3.13;;;17.90;99.90;;;;;;5114142;27;20117;-63
2022/10/07 11:45:00;;;;;;;12.68;2.85;;;17.60;99.90;;;;;;5128415;27;20409;-63
2022/10/07 11:48:04;;;;;;;9.23;2.22;;;17.40;99.90;;;;;;5131941;27;20039;-63
2022/10/07 11:50:41;;;;;;;13.63;2.92;;;17.20;99.90;;;;;;5127906;27;20039;-63
2022/10/07 11:53:16;;;;;;;12.18;2.78;;;17.10;99.90;;;;;;5118155;27;20031;-63
2022/10/07 11:55:50;;;;;;;13.45;3.10;;;17.00;99.90;;;;;;5129521;27;20043;-63
2022/10/07 11:58:43;;;;;;;15.00;2.95;;;17.00;99.90;;;;;;5130844;27;20039;-64
2022/10/07 12:01:24;;;;;;;12.38;2.78;;;17.10;99.90;;;;;;5127316;27;20463;-63
2022/10/07 12:03:59;;;;;;;12.20;2.97;;;17.20;99.90;;;;;;5130797;27;20093;-64
2022/10/07 12:06:25;;;;;;;15.15;3.33;;;17.10;99.90;;;;;;5114442;27;20039;-63
2022/10/07 12:08:52;;;;;;;13.25;2.63;;;17.10;99.90;;;;;;5112187;27;20038;-61
2022/10/07 12:11:17;;;;;;;14.30;2.78;;;17.00;99.90;;;;;;5112889;27;20118;-64
2022/10/07 12:13:51;;;;;;;11.50;2.60;;;16.80;99.90;;;;;;5112745;27;20157;-64
2022/10/07 12:16:30;;;;;;;12.70;2.42;;;16.80;99.90;;;;;;5108985;28;20043;-63
2022/10/07 12:19:09;;;;;;;11.85;2.38;;;16.70;99.90;;;;;;5113289;27;20058;-63
2022/10/07 12:22:03;;;;;;;12.77;2.08;;;16.70;99.90;;;;;;5130036;27;20063;-63
2022/10/07 12:24:32;;;;;;;11.43;2.60;;;16.70;99.90;;;;;;5130350;27;20106;-63
2022/10/07 12:27:16;;;;;;;10.95;2.60;;;16.70;99.90;;;;;;5115072;27;20138;-63
2022/10/07 12:29:47;;;;;;;14.57;3.10;;;16.80;99.90;;;;;;5120251;27;20173;-64
2022/10/07 12:32:41;;;;;;;11.25;2.83;;;16.90;99.90;;;;;;5130165;27;20057;-63
2022/10/07 12:35:28;;;;;;;14.38;3.20;;;16.80;99.90;;;;;;5119791;27;20035;-64
2022/10/07 12:38:24;;;;;;;10.57;3.13;;;16.80;99.90;;;;;;5128537;27;20436;-64
2022/10/07 12:41:13;;;;;;;10.60;2.80;;;16.70;99.90;;;;;;5117182;27;20043;-63
2022/10/07 12:43:53;;;;;;;10.73;2.95;;;16.80;99.90;;;;;;5126707;27;20035;-64
2022/10/07 12:46:22;;;;;;;11.25;3.00;;;17.00;99.90;;;;;;5112632;27;20493;-62
2022/10/07 12:49:12;;;;;;;12.60;3.30;;;17.10;99.90;;;;;;5109537;28;20070;-63
2022/10/07 12:51:39;;;;;;;13.00;2.50;;;17.20;99.90;;;;;;5113136;27;20035;-63
2022/10/07 12:54:20;;;;;;;9.82;2.40;;;17.30;99.90;;;;;;5111052;28;20107;-63
2022/10/07 12:56:47;;;;;;;10.93;2.80;;;17.30;99.90;;;;;;5121890;27;20044;-64
2022/10/07 13:02:28;;;;;;;14.88;6.32;;;17.30;99.90;;;;;;5119113;27;20123;-62
2022/10/07 13:05:28;;;;;;;27.30;10.48;;;17.20;99.90;;;;;;5119506;28;20039;-63
2022/10/07 13:08:03;;;;;;;22.95;9.02;;;17.20;99.90;;;;;;5110666;28;20126;-63
2022/10/07 13:10:56;;;;;;;39.78;16.42;;;17.30;99.90;;;;;;5111847;28;20036;-64
2022/10/07 13:13:35;;;;;;;39.85;15.27;;;17.30;99.90;;;;;;5094609;28;20054;-64
2022/10/07 13:16:16;;;;;;;28.40;12.38;;;17.30;99.90;;;;;;5110423;28;20384;-62
2022/10/07 13:19:05;;;;;;;;;;;17.40;99.90;;;;;;5111957;28;20468;-63